Time;durP1;ratioP1;P1;durP2;ratioP2;P2;SDS_P1;SDS_P2;PMS_P1;PMS_P2;Temp;Humidity;BMP_temperature;BMP_pressure;BME280_temperature;BME280_humidity;BME280_pressure;Samples;Min_cycle;Max_cycle;Signal;HPM_P1;HPM_P2
2023/08/30 00:00:58;;;;;;;16.65;9.63;;;16.30;99.90;;;;;;4927874;29;20050;-83
2023/08/30 00:03:24;;;;;;;15.05;9.05;;;16.10;99.90;;;;;;4934904;29;20034;-82
2023/08/30 00:05:49;;;;;;;12.80;8.63;;;16.10;99.90;;;;;;4943304;29;20071;-82
2023/08/30 00:08:19;;;;;;;12.77;8.68;;;16.10;99.90;;;;;;4930341;29;20032;-83
2023/08/30 00:10:45;;;;;;;13.18;8.52;;;16.10;99.90;;;;;;4929510;29;20020;-82
2023/08/30 00:13:11;;;;;;;18.08;9.05;;;16.00;99.90;;;;;;4942258;28;20031;-83
2023/08/30 00:15:37;;;;;;;9.75;8.25;;;16.00;99.90;;;;;;4928433;29;20036;-82
2023/08/30 00:18:03;;;;;;;10.98;8.38;;;15.90;99.90;;;;;;4930913;29;20038;-83
2023/08/30 00:20:29;;;;;;;11.43;8.50;;;15.90;99.90;;;;;;4924564;29;20106;-82
2023/08/30 00:22:55;;;;;;;12.60;8.63;;;15.90;99.90;;;;;;4927367;29;20480;-82
2023/08/30 00:25:20;;;;;;;11.60;8.18;;;15.80;99.90;;;;;;4921382;29;20039;-83
2023/08/30 00:27:46;;;;;;;12.63;9.25;;;15.80;99.90;;;;;;4927367;29;20024;-83
2023/08/30 00:30:14;;;;;;;11.32;9.30;;;15.80;99.90;;;;;;4956846;29;20031;-83
2023/08/30 00:32:40;;;;;;;12.38;8.75;;;15.80;99.90;;;;;;4953768;29;20114;-84
2023/08/30 00:35:06;;;;;;;9.45;7.45;;;15.70;99.90;;;;;;4940767;29;20400;-83
2023/08/30 00:37:31;;;;;;;12.65;8.52;;;15.70;99.90;;;;;;4929145;29;20099;-83
2023/08/30 00:39:59;;;;;;;14.00;9.23;;;15.70;99.90;;;;;;4926101;29;20106;-83
2023/08/30 00:42:25;;;;;;;10.85;8.38;;;15.60;99.90;;;;;;4927025;29;20012;-83
2023/08/30 00:44:50;;;;;;;13.13;8.18;;;15.60;99.90;;;;;;4926946;29;20038;-83
2023/08/30 00:47:16;;;;;;;16.90;8.90;;;15.50;99.90;;;;;;4926061;29;20034;-84
2023/08/30 00:49:44;;;;;;;16.27;8.90;;;15.50;99.90;;;;;;4929384;29;20421;-83
2023/08/30 00:52:11;;;;;;;13.13;8.55;;;15.50;99.90;;;;;;4927761;29;20031;-84
2023/08/30 00:54:38;;;;;;;10.50;8.80;;;15.40;99.90;;;;;;4928699;29;20043;-83
2023/08/30 00:57:07;;;;;;;14.45;9.05;;;15.40;99.90;;;;;;4922745;29;20614;-83
2023/08/30 00:59:33;;;;;;;11.52;9.15;;;15.30;99.90;;;;;;4927343;29;20023;-82
2023/08/30 01:02:00;;;;;;;11.35;9.25;;;15.20;99.90;;;;;;4929655;29;20059;-82
2023/08/30 01:04:27;;;;;;;12.48;9.38;;;15.10;99.90;;;;;;4926834;29;20266;-83
2023/08/30 01:06:53;;;;;;;14.82;8.98;;;15.20;99.90;;;;;;4935150;29;20035;-84
2023/08/30 01:09:19;;;;;;;15.68;9.05;;;15.20;99.90;;;;;;4922913;29;20031;-83
2023/08/30 01:12:02;;;;;;;13.82;8.93;;;15.20;99.90;;;;;;4923984;29;20051;-82
2023/08/30 01:14:40;;;;;;;16.80;9.50;;;15.20;99.90;;;;;;4934844;28;20036;-83
2023/08/30 01:17:09;;;;;;;14.35;9.15;;;15.10;99.90;;;;;;4928188;29;20061;-83
2023/08/30 01:19:40;;;;;;;21.95;8.95;;;15.00;99.90;;;;;;4920898;29;20047;-83
2023/08/30 01:22:14;;;;;;;14.05;9.15;;;15.10;99.90;;;;;;4929109;29;20031;-82
2023/08/30 01:24:45;;;;;;;13.20;9.75;;;15.20;99.90;;;;;;4928043;29;20436;-83
2023/08/30 01:27:12;;;;;;;17.15;9.68;;;15.10;99.90;;;;;;4920024;29;20072;-83
2023/08/30 01:29:41;;;;;;;17.23;9.27;;;15.10;99.90;;;;;;4928468;29;20055;-83
2023/08/30 01:32:09;;;;;;;10.18;8.32;;;15.20;99.90;;;;;;4925974;29;20023;-83
2023/08/30 01:34:36;;;;;;;14.00;8.82;;;15.30;99.90;;;;;;4926846;29;20050;-83
2023/08/30 01:37:04;;;;;;;11.45;9.57;;;15.30;99.90;;;;;;4922751;29;20024;-82
2023/08/30 01:39:30;;;;;;;16.60;9.30;;;15.30;99.90;;;;;;4927998;29;20024;-82
2023/08/30 01:41:58;;;;;;;16.85;10.63;;;15.30;99.90;;;;;;4927554;29;20074;-82
2023/08/30 01:44:27;;;;;;;14.52;10.18;;;15.30;99.90;;;;;;4928740;29;20063;-83
2023/08/30 01:46:53;;;;;;;14.18;9.80;;;15.40;99.90;;;;;;4927787;29;20035;-82
2023/08/30 01:49:19;;;;;;;16.92;9.50;;;15.40;99.90;;;;;;4923556;29;20955;-82
2023/08/30 01:51:45;;;;;;;17.02;10.10;;;15.40;99.90;;;;;;4928403;29;20036;-83
2023/08/30 01:54:16;;;;;;;12.60;8.93;;;15.50;99.90;;;;;;4925061;29;20047;-83
2023/08/30 01:56:42;;;;;;;16.30;9.75;;;15.40;99.90;;;;;;4929157;29;20032;-83
2023/08/30 01:59:08;;;;;;;14.95;10.65;;;15.40;99.90;;;;;;4925469;29;20381;-84
2023/08/30 02:01:36;;;;;;;15.90;9.85;;;15.50;99.90;;;;;;4927857;29;20054;-83
2023/08/30 02:04:02;;;;;;;13.52;10.15;;;15.50;99.90;;;;;;4925672;29;20031;-83
2023/08/30 02:06:35;;;;;;;13.55;10.60;;;15.40;99.90;;;;;;4941063;29;20091;-84
2023/08/30 02:09:32;;;;;;;16.60;10.50;;;15.40;99.90;;;;;;4939764;29;20024;-83
2023/08/30 02:12:04;;;;;;;14.57;10.27;;;15.30;99.90;;;;;;4932588;29;20150;-82
2023/08/30 02:14:32;;;;;;;13.32;10.13;;;15.30;99.90;;;;;;4927318;29;20083;-83
2023/08/30 02:16:58;;;;;;;18.40;10.32;;;15.20;99.90;;;;;;4926896;29;20028;-83
2023/08/30 02:19:24;;;;;;;15.68;10.23;;;15.30;99.90;;;;;;4927193;29;20560;-82
2023/08/30 02:21:50;;;;;;;19.63;10.85;;;15.40;99.90;;;;;;4927750;29;20054;-84
2023/08/30 02:24:15;;;;;;;16.10;10.05;;;15.50;99.90;;;;;;4927996;29;20160;-83
2023/08/30 02:26:41;;;;;;;16.38;10.98;;;15.40;99.90;;;;;;4926256;29;20660;-84
2023/08/30 02:29:08;;;;;;;14.70;9.95;;;15.50;99.90;;;;;;4926298;29;20031;-83
2023/08/30 02:31:33;;;;;;;13.75;9.88;;;15.50;99.90;;;;;;4924151;29;20837;-83
2023/08/30 02:33:59;;;;;;;16.77;10.18;;;15.60;99.90;;;;;;4929049;29;20039;-84
2023/08/30 02:36:25;;;;;;;18.08;10.60;;;15.60;99.90;;;;;;4926992;29;20039;-83
2023/08/30 02:38:50;;;;;;;14.27;9.98;;;15.70;99.90;;;;;;4926084;29;20027;-83
2023/08/30 02:41:16;;;;;;;13.45;8.90;;;15.70;99.90;;;;;;4928360;29;20024;-84
2023/08/30 02:43:41;;;;;;;15.48;9.40;;;15.80;99.90;;;;;;4924473;29;20031;-83
2023/08/30 02:46:07;;;;;;;15.60;9.55;;;15.70;99.90;;;;;;4929200;29;20016;-83
2023/08/30 02:48:33;;;;;;;18.35;10.30;;;15.70;99.90;;;;;;4928016;29;20333;-81
2023/08/30 02:50:59;;;;;;;41.53;19.00;;;15.70;99.90;;;;;;4931195;29;20115;-83
2023/08/30 02:53:27;;;;;;;17.27;10.45;;;15.70;99.90;;;;;;4932241;29;20036;-84
2023/08/30 02:55:55;;;;;;;16.23;10.23;;;15.70;99.90;;;;;;4930487;29;20392;-83
2023/08/30 02:58:21;;;;;;;14.95;10.57;;;15.70;99.90;;;;;;4928334;29;20531;-84
2023/08/30 03:00:46;;;;;;;20.20;11.18;;;15.70;99.90;;;;;;4922923;29;20036;-83
2023/08/30 03:03:15;;;;;;;17.83;11.40;;;15.70;99.90;;;;;;4930838;29;20030;-83
2023/08/30 03:05:42;;;;;;;14.10;10.73;;;15.70;99.90;;;;;;4927371;29;20439;-83
2023/08/30 03:08:08;;;;;;;15.45;10.52;;;15.70;99.90;;;;;;5045633;23;20048;-83
2023/08/30 03:10:34;;;;;;;16.52;10.63;;;15.70;99.90;;;;;;4915203;29;20028;-82
2023/08/30 03:12:59;;;;;;;16.50;11.40;;;15.70;99.90;;;;;;4918296;29;20107;-83
2023/08/30 03:15:25;;;;;;;19.80;11.30;;;15.70;99.90;;;;;;4921071;29;20035;-83
2023/08/30 03:17:53;;;;;;;20.05;11.35;;;15.70;99.90;;;;;;4907390;29;20384;-84
2023/08/30 03:20:18;;;;;;;15.98;11.98;;;15.70;99.90;;;;;;4922501;29;20028;-82
2023/08/30 03:22:49;;;;;;;19.88;11.20;;;15.70;99.90;;;;;;4902441;29;20159;-83
2023/08/30 03:25:14;;;;;;;15.50;11.90;;;15.70;99.90;;;;;;4917881;29;20024;-83
2023/08/30 03:27:43;;;;;;;18.23;11.65;;;15.70;99.90;;;;;;4903008;29;20020;-83
2023/08/30 03:30:09;;;;;;;18.85;12.02;;;15.70;99.90;;;;;;4920054;29;20032;-83
2023/08/30 03:32:35;;;;;;;15.23;12.00;;;15.70;99.90;;;;;;4921305;29;20167;-83
2023/08/30 03:35:00;;;;;;;22.20;11.80;;;15.70;99.90;;;;;;4904991;29;20119;-82
2023/08/30 03:37:26;;;;;;;15.02;11.85;;;15.70;99.90;;;;;;4920289;29;20031;-82
2023/08/30 03:39:52;;;;;;;20.52;12.43;;;15.80;99.90;;;;;;4917076;29;20032;-82
2023/08/30 03:42:19;;;;;;;21.13;12.88;;;15.80;99.90;;;;;;4919997;29;20024;-82
2023/08/30 03:44:45;;;;;;;20.55;11.27;;;15.80;99.90;;;;;;4921188;28;20024;-83
2023/08/30 03:47:10;;;;;;;19.42;11.75;;;15.70;99.90;;;;;;4931117;28;20031;-83
2023/08/30 03:49:36;;;;;;;20.40;11.65;;;15.70;99.90;;;;;;4945704;28;20047;-82
2023/08/30 03:52:02;;;;;;;20.80;11.98;;;15.70;99.90;;;;;;4916458;29;20103;-82
2023/08/30 03:54:28;;;;;;;15.27;11.07;;;15.70;99.90;;;;;;4905379;29;20672;-82
2023/08/30 03:56:53;;;;;;;15.10;11.23;;;15.70;99.90;;;;;;4912360;29;20043;-82
2023/08/30 03:59:19;;;;;;;17.25;11.57;;;15.70;99.90;;;;;;4919296;29;20047;-82
2023/08/30 04:01:45;;;;;;;18.30;11.43;;;15.70;99.90;;;;;;4901387;29;20091;-83
2023/08/30 04:04:13;;;;;;;18.77;11.68;;;15.70;99.90;;;;;;4918987;29;20079;-84
2023/08/30 04:06:38;;;;;;;16.08;10.80;;;15.60;99.90;;;;;;4900860;29;20024;-83
2023/08/30 04:09:04;;;;;;;17.73;11.57;;;15.60;99.90;;;;;;4913837;29;20121;-82
2023/08/30 04:11:30;;;;;;;17.67;12.07;;;15.50;99.90;;;;;;4918939;29;20032;-83
2023/08/30 04:13:55;;;;;;;16.50;11.40;;;15.40;99.90;;;;;;4902000;29;20035;-83
2023/08/30 04:16:21;;;;;;;17.33;11.77;;;15.40;99.90;;;;;;4918902;29;20576;-83
2023/08/30 04:18:46;;;;;;;20.13;12.25;;;15.40;99.90;;;;;;4907417;29;20032;-81
2023/08/30 04:21:12;;;;;;;17.77;11.93;;;15.30;99.90;;;;;;4919886;29;20031;-82
2023/08/30 04:23:37;;;;;;;21.63;12.23;;;15.20;99.90;;;;;;4905905;29;20042;-82
2023/08/30 04:26:03;;;;;;;17.38;11.85;;;15.20;99.90;;;;;;4902738;29;20538;-82
2023/08/30 04:28:29;;;;;;;20.40;11.65;;;15.10;99.90;;;;;;4898357;29;20024;-82
2023/08/30 04:30:55;;;;;;;20.42;12.43;;;15.10;99.90;;;;;;4902778;29;20024;-83
2023/08/30 04:33:24;;;;;;;14.80;11.77;;;15.10;99.90;;;;;;4905664;29;20092;-83
2023/08/30 04:35:53;;;;;;;21.45;13.35;;;15.10;99.90;;;;;;4899859;29;20123;-83
2023/08/30 04:38:19;;;;;;;17.02;12.18;;;15.20;99.90;;;;;;4915961;29;20034;-82
2023/08/30 04:40:46;;;;;;;17.23;12.98;;;15.10;99.90;;;;;;4915731;29;20046;-82
2023/08/30 04:43:12;;;;;;;22.60;12.80;;;15.10;99.90;;;;;;4906207;29;20028;-82
2023/08/30 04:45:37;;;;;;;18.98;12.68;;;15.00;99.90;;;;;;4899448;29;20039;-83
2023/08/30 04:48:04;;;;;;;26.08;12.73;;;15.00;99.90;;;;;;4917115;29;20028;-82
2023/08/30 04:50:30;;;;;;;20.10;13.50;;;15.00;99.90;;;;;;4906735;29;20133;-82
2023/08/30 04:52:56;;;;;;;22.70;13.77;;;14.90;99.90;;;;;;4916843;29;20032;-82
2023/08/30 04:55:23;;;;;;;19.08;13.20;;;14.90;99.90;;;;;;4902635;29;20505;-83
2023/08/30 04:57:49;;;;;;;22.65;13.63;;;14.90;99.90;;;;;;4898671;29;20051;-83
2023/08/30 05:00:15;;;;;;;23.90;13.80;;;14.90;99.90;;;;;;4899605;29;20024;-82
2023/08/30 05:02:43;;;;;;;18.65;13.32;;;14.90;99.90;;;;;;4907216;29;20112;-82
2023/08/30 05:05:11;;;;;;;20.00;14.38;;;14.80;99.90;;;;;;4906565;29;20032;-82
2023/08/30 05:07:36;;;;;;;20.73;13.52;;;14.80;99.90;;;;;;4903346;29;20589;-82
2023/08/30 05:10:06;;;;;;;19.15;14.00;;;14.80;99.90;;;;;;4917655;29;20039;-82
2023/08/30 05:12:36;;;;;;;25.10;14.18;;;14.80;99.90;;;;;;4916359;29;20134;-82
2023/08/30 05:15:03;;;;;;;22.13;13.77;;;14.80;99.90;;;;;;4918646;29;20489;-83
2023/08/30 05:17:29;;;;;;;24.35;14.30;;;14.80;99.90;;;;;;4919307;29;20536;-82
2023/08/30 05:19:55;;;;;;;24.80;15.25;;;14.80;99.90;;;;;;4908219;29;20134;-82
2023/08/30 05:22:21;;;;;;;19.73;13.30;;;14.80;99.90;;;;;;4915241;29;20015;-82
2023/08/30 05:24:48;;;;;;;32.72;15.60;;;14.80;99.90;;;;;;4902955;29;20036;-83
2023/08/30 05:27:18;;;;;;;26.85;15.07;;;14.80;99.90;;;;;;4907360;29;20013;-81
2023/08/30 05:29:43;;;;;;;22.40;14.68;;;14.80;99.90;;;;;;4906783;29;20028;-83
2023/08/30 05:32:09;;;;;;;26.55;14.38;;;14.80;99.90;;;;;;4913738;29;20035;-83
2023/08/30 05:34:34;;;;;;;25.20;15.00;;;14.80;99.90;;;;;;4920275;29;20053;-83
2023/08/30 05:37:00;;;;;;;25.33;15.68;;;14.80;99.90;;;;;;4904416;29;20026;-83
2023/08/30 05:39:26;;;;;;;25.17;15.63;;;14.80;99.90;;;;;;4902810;29;20035;-82
2023/08/30 05:41:51;;;;;;;29.90;16.67;;;14.80;99.90;;;;;;4902527;29;20051;-83
2023/08/30 05:44:17;;;;;;;25.35;16.35;;;14.80;99.90;;;;;;4901073;29;20058;-83
2023/08/30 05:46:43;;;;;;;30.48;17.20;;;14.80;99.90;;;;;;4905814;29;20122;-85
2023/08/30 05:49:08;;;;;;;26.95;17.73;;;14.90;99.90;;;;;;4899952;29;20110;-83
2023/08/30 05:51:34;;;;;;;30.38;19.17;;;14.90;99.90;;;;;;4915562;29;20036;-82
2023/08/30 05:54:00;;;;;;;28.75;18.52;;;14.90;99.90;;;;;;4902569;29;20433;-85
2023/08/30 05:56:25;;;;;;;28.23;18.90;;;14.90;99.90;;;;;;4919534;29;20037;-84
2023/08/30 05:58:51;;;;;;;33.58;19.15;;;14.90;99.90;;;;;;4917241;29;20571;-84
2023/08/30 06:01:19;;;;;;;30.20;18.65;;;15.00;99.90;;;;;;4915655;29;20020;-83
2023/08/30 06:03:45;;;;;;;29.48;19.60;;;15.00;99.90;;;;;;4920135;29;20107;-83
2023/08/30 06:06:14;;;;;;;31.88;19.70;;;15.10;99.90;;;;;;4901330;29;20102;-83
2023/08/30 06:08:39;;;;;;;36.42;20.85;;;15.10;99.90;;;;;;4922931;29;20032;-82
2023/08/30 06:11:05;;;;;;;33.22;21.80;;;15.20;99.90;;;;;;4918160;29;20050;-82
2023/08/30 06:13:30;;;;;;;35.40;21.55;;;15.30;99.90;;;;;;4905928;29;20043;-83
2023/08/30 06:15:56;;;;;;;29.42;20.83;;;15.30;99.90;;;;;;4921063;29;20092;-83
2023/08/30 06:18:22;;;;;;;32.97;20.25;;;15.30;99.90;;;;;;4926232;29;20039;-83
2023/08/30 06:20:47;;;;;;;33.97;21.77;;;15.40;99.90;;;;;;4919778;29;20572;-83
2023/08/30 06:23:15;;;;;;;33.03;20.88;;;15.40;99.90;;;;;;4904780;29;20115;-84
2023/08/30 06:25:41;;;;;;;35.63;20.92;;;15.50;99.90;;;;;;4921198;29;20028;-84
2023/08/30 06:28:06;;;;;;;31.75;21.83;;;15.60;99.90;;;;;;4919912;29;20034;-85
2023/08/30 06:30:32;;;;;;;34.00;21.73;;;15.70;99.90;;;;;;4904344;29;20020;-84
2023/08/30 06:32:58;;;;;;;40.65;22.13;;;15.70;99.90;;;;;;4909870;29;20416;-82
2023/08/30 06:35:24;;;;;;;36.80;22.60;;;15.80;99.90;;;;;;4922687;29;20400;-83
2023/08/30 06:37:52;;;;;;;35.13;21.13;;;15.80;99.90;;;;;;4901698;29;20122;-83
2023/08/30 06:40:25;;;;;;;32.83;22.05;;;15.90;99.90;;;;;;4924033;29;20531;-84
2023/08/30 06:42:51;;;;;;;34.83;20.52;;;16.00;99.90;;;;;;4919216;29;20023;-84
2023/08/30 06:45:17;;;;;;;29.83;20.65;;;16.10;99.90;;;;;;4907835;29;20432;-82
2023/08/30 06:47:42;;;;;;;33.88;21.38;;;16.20;99.90;;;;;;4904373;29;20035;-82
2023/08/30 06:50:09;;;;;;;30.33;18.55;;;16.30;99.90;;;;;;4918609;29;20154;-83
2023/08/30 06:52:37;;;;;;;33.00;19.70;;;16.40;99.90;;;;;;4907036;29;20025;-82
2023/08/30 06:55:05;;;;;;;35.38;20.05;;;16.40;99.90;;;;;;4915661;29;20527;-82
2023/08/30 06:57:30;;;;;;;32.50;20.08;;;16.30;99.90;;;;;;4905188;29;20072;-82
2023/08/30 06:59:56;;;;;;;28.02;18.25;;;16.20;99.90;;;;;;4906955;29;20066;-83
2023/08/30 07:02:22;;;;;;;31.90;18.60;;;16.20;99.90;;;;;;4909489;29;20047;-83
2023/08/30 07:04:48;;;;;;;27.05;19.25;;;16.30;99.90;;;;;;4904859;29;20028;-84
2023/08/30 07:07:13;;;;;;;27.05;17.48;;;16.40;99.90;;;;;;4904568;29;20020;-83
2023/08/30 07:09:42;;;;;;;23.75;16.23;;;16.40;99.90;;;;;;4902976;29;20461;-82
2023/08/30 07:12:08;;;;;;;32.55;19.60;;;16.40;99.90;;;;;;4909011;29;20031;-82
2023/08/30 07:14:36;;;;;;;24.70;17.27;;;16.60;99.90;;;;;;4915090;29;20050;-82
2023/08/30 07:19:40;;;;;;;26.15;17.33;;;16.80;99.90;;;;;;4979287;23;20481;-87
2023/08/30 07:22:05;;;;;;;29.25;17.63;;;16.90;99.90;;;;;;4905010;29;20056;-86
2023/08/30 07:24:31;;;;;;;25.88;17.38;;;16.90;99.90;;;;;;4919308;29;20028;-86
2023/08/30 07:26:56;;;;;;;24.95;17.27;;;16.90;99.90;;;;;;4913511;29;20059;-86
2023/08/30 07:29:22;;;;;;;27.67;16.80;;;17.00;99.90;;;;;;4917443;29;20122;-86
2023/08/30 07:31:53;;;;;;;34.22;17.23;;;17.10;99.90;;;;;;4905464;29;20481;-83
2023/08/30 07:34:19;;;;;;;27.08;16.58;;;17.10;99.90;;;;;;4907148;29;20039;-83
2023/08/30 07:36:44;;;;;;;26.50;16.75;;;17.20;99.90;;;;;;4922001;29;20126;-86
2023/08/30 07:39:10;;;;;;;19.13;13.43;;;17.00;99.90;;;;;;4911607;29;20421;-88
2023/08/30 07:41:38;;;;;;;22.25;14.68;;;17.00;99.90;;;;;;4909027;29;20055;-88
2023/08/30 07:44:04;;;;;;;21.67;15.63;;;17.10;99.90;;;;;;4921595;29;20039;-84
2023/08/30 07:46:29;;;;;;;25.77;14.95;;;17.30;99.90;;;;;;4924017;29;20020;-84
2023/08/30 07:48:55;;;;;;;24.88;15.98;;;17.40;99.90;;;;;;4911708;29;20035;-84
2023/08/30 07:51:21;;;;;;;21.05;14.75;;;17.50;99.90;;;;;;4914980;29;20027;-85
2023/08/30 07:53:47;;;;;;;18.50;13.80;;;17.40;99.90;;;;;;4908496;29;20038;-86
2023/08/30 07:58:48;;;;;;;20.88;13.18;;;17.50;99.90;;;;;;4940385;23;20056;-86
2023/08/30 08:01:14;;;;;;;15.90;12.50;;;17.50;99.90;;;;;;4914104;29;20448;-84
2023/08/30 08:03:41;;;;;;;20.55;13.88;;;17.30;99.90;;;;;;4930664;29;20443;-84
2023/08/30 08:06:06;;;;;;;22.17;13.93;;;17.30;99.90;;;;;;4915109;29;20397;-85
2023/08/30 08:08:32;;;;;;;21.23;13.50;;;17.40;99.90;;;;;;4929904;29;20028;-82
2023/08/30 08:10:59;;;;;;;16.63;12.73;;;17.60;99.90;;;;;;4912808;29;20172;-84
2023/08/30 08:13:25;;;;;;;19.73;13.00;;;17.60;99.90;;;;;;4914554;29;20481;-85
2023/08/30 08:15:51;;;;;;;19.85;13.10;;;17.70;99.90;;;;;;4928830;29;20047;-81
2023/08/30 08:18:19;;;;;;;20.60;13.57;;;17.70;99.90;;;;;;4914658;29;20107;-83
2023/08/30 08:20:45;;;;;;;24.08;13.82;;;17.80;99.90;;;;;;4912947;29;20058;-82
2023/08/30 08:23:10;;;;;;;19.75;13.07;;;17.80;99.90;;;;;;4911391;29;20051;-82
2023/08/30 08:25:36;;;;;;;21.13;12.75;;;17.80;99.90;;;;;;4915152;29;20059;-85
2023/08/30 08:28:03;;;;;;;26.27;14.45;;;17.80;99.90;;;;;;4930165;29;20792;-85
2023/08/30 08:30:31;;;;;;;18.83;13.02;;;17.70;99.90;;;;;;4915036;29;20036;-85
2023/08/30 08:33:01;;;;;;;19.48;12.75;;;17.70;99.90;;;;;;4911250;29;20024;-83
2023/08/30 08:35:29;;;;;;;18.17;12.43;;;17.70;99.90;;;;;;4950082;29;20110;-83
2023/08/30 08:37:56;;;;;;;17.58;12.07;;;17.40;99.90;;;;;;4919597;29;20476;-84
2023/08/30 08:40:22;;;;;;;25.38;12.95;;;17.20;99.90;;;;;;4928036;29;20024;-83
2023/08/30 08:42:50;;;;;;;17.13;12.63;;;17.40;99.90;;;;;;4912382;29;20023;-82
2023/08/30 08:45:17;;;;;;;16.95;12.80;;;17.40;99.90;;;;;;4927309;29;20616;-85
2023/08/30 08:47:45;;;;;;;17.35;12.18;;;17.30;99.90;;;;;;4921593;29;20023;-83
2023/08/30 08:50:13;;;;;;;14.68;11.68;;;17.30;99.90;;;;;;4925600;29;20028;-83
2023/08/30 08:52:39;;;;;;;18.80;13.25;;;17.30;99.90;;;;;;4934269;29;20135;-82
2023/08/30 08:55:05;;;;;;;17.05;12.35;;;17.20;99.90;;;;;;4932395;29;20042;-85
2023/08/30 08:57:33;;;;;;;21.25;12.52;;;17.20;99.90;;;;;;4912847;29;20031;-83
2023/08/30 08:59:59;;;;;;;20.08;12.93;;;17.10;99.90;;;;;;4911679;29;20432;-83
2023/08/30 09:02:25;;;;;;;21.38;14.05;;;17.00;99.90;;;;;;4911222;29;20099;-82
2023/08/30 09:04:52;;;;;;;19.65;13.23;;;16.70;99.90;;;;;;4930783;29;20495;-82
2023/08/30 09:07:19;;;;;;;22.08;12.57;;;16.60;99.90;;;;;;4910500;29;20024;-83
2023/08/30 09:09:46;;;;;;;17.60;14.38;;;16.40;99.90;;;;;;4929040;29;20457;-83
2023/08/30 09:12:11;;;;;;;19.42;15.32;;;16.20;99.90;;;;;;4907383;29;20031;-82
2023/08/30 09:14:37;;;;;;;20.73;14.73;;;15.80;99.90;;;;;;4929207;29;20594;-83
2023/08/30 09:17:05;;;;;;;20.88;14.70;;;15.30;99.90;;;;;;4926777;29;20023;-82
2023/08/30 09:19:31;;;;;;;20.92;14.13;;;15.30;99.90;;;;;;4931008;29;20023;-86
2023/08/30 09:21:58;;;;;;;17.13;13.02;;;15.20;99.90;;;;;;4928840;29;20027;-86
2023/08/30 09:24:24;;;;;;;22.30;14.10;;;15.20;99.90;;;;;;4928637;29;20039;-83
2023/08/30 09:26:52;;;;;;;20.10;14.88;;;15.30;99.90;;;;;;4913020;29;20459;-82
2023/08/30 09:29:19;;;;;;;23.00;14.75;;;15.20;99.90;;;;;;4927908;29;20047;-82
2023/08/30 09:31:45;;;;;;;22.25;14.65;;;15.20;99.90;;;;;;4903092;29;20036;-86
2023/08/30 09:34:11;;;;;;;23.15;15.98;;;15.20;99.90;;;;;;4913772;29;20032;-85
2023/08/30 09:36:45;;;;;;;22.10;15.02;;;15.20;99.90;;;;;;4915355;29;20031;-86
2023/08/30 09:39:12;;;;;;;25.83;16.17;;;15.30;99.90;;;;;;4913274;29;20094;-83
2023/08/30 09:41:43;;;;;;;22.20;15.80;;;15.40;99.90;;;;;;4924274;29;20055;-84
2023/08/30 09:44:12;;;;;;;16.10;13.52;;;15.50;99.90;;;;;;4930833;29;20023;-84
2023/08/30 09:47:03;;;;;;;18.35;13.65;;;15.40;99.90;;;;;;4908243;29;20031;-83
2023/08/30 09:49:30;;;;;;;18.65;13.50;;;15.30;99.90;;;;;;4912626;29;20039;-82
2023/08/30 09:51:58;;;;;;;15.13;12.27;;;15.20;99.90;;;;;;4913935;29;20504;-82
2023/08/30 09:54:25;;;;;;;14.23;10.93;;;15.00;99.90;;;;;;4915943;29;20115;-83
2023/08/30 09:56:52;;;;;;;19.13;12.23;;;14.90;99.90;;;;;;4908919;29;20047;-83
2023/08/30 09:59:19;;;;;;;19.20;13.38;;;15.00;99.90;;;;;;4912230;29;20119;-82
2023/08/30 10:01:47;;;;;;;16.98;13.15;;;15.00;99.90;;;;;;4904851;29;20028;-82
2023/08/30 10:04:17;;;;;;;16.45;12.93;;;14.90;99.90;;;;;;4931515;29;20032;-83
2023/08/30 10:06:45;;;;;;;15.90;12.13;;;14.90;99.90;;;;;;4929259;29;20476;-82
2023/08/30 10:09:10;;;;;;;14.52;10.82;;;15.00;99.90;;;;;;4913323;29;20207;-83
2023/08/30 10:11:38;;;;;;;21.63;13.38;;;14.90;99.90;;;;;;4930888;29;20042;-87
2023/08/30 10:14:05;;;;;;;15.70;12.65;;;15.00;99.90;;;;;;4933074;29;20035;-81
2023/08/30 10:16:42;;;;;;;18.35;13.05;;;15.00;99.90;;;;;;4929430;29;20042;-82
2023/08/30 10:19:15;;;;;;;16.90;13.00;;;14.90;99.90;;;;;;4914559;29;20120;-83
2023/08/30 10:21:53;;;;;;;16.33;12.18;;;15.00;99.90;;;;;;4907482;29;20118;-84
2023/08/30 10:24:21;;;;;;;14.77;12.63;;;15.00;99.90;;;;;;4929804;29;20433;-82
2023/08/30 10:26:47;;;;;;;20.13;14.07;;;14.80;99.90;;;;;;4914153;29;20042;-82
2023/08/30 10:29:15;;;;;;;16.77;13.60;;;14.90;99.90;;;;;;4911269;29;20336;-82
2023/08/30 10:31:41;;;;;;;17.40;13.27;;;14.90;99.90;;;;;;4913127;29;20134;-83
2023/08/30 10:34:18;;;;;;;18.38;11.85;;;14.90;99.90;;;;;;4911697;29;20068;-82
2023/08/30 10:36:44;;;;;;;15.45;12.38;;;14.90;99.90;;;;;;4929879;29;20587;-83
2023/08/30 10:39:14;;;;;;;18.10;12.60;;;15.00;99.90;;;;;;4911274;29;20429;-83
2023/08/30 10:41:57;;;;;;;16.50;13.82;;;15.10;99.90;;;;;;4930830;29;20024;-83
2023/08/30 10:44:23;;;;;;;11.77;10.50;;;15.00;99.90;;;;;;4933729;29;20096;-84
2023/08/30 10:46:56;;;;;;;13.57;10.90;;;15.00;99.90;;;;;;4948001;28;20114;-89
2023/08/30 10:49:23;;;;;;;14.60;11.50;;;15.10;99.90;;;;;;4932130;29;20038;-89
2023/08/30 10:52:00;;;;;;;14.40;11.90;;;15.10;99.90;;;;;;4915591;29;20039;-88
2023/08/30 10:54:38;;;;;;;10.88;9.77;;;15.10;99.90;;;;;;4930923;29;20024;-87
2023/08/30 10:57:04;;;;;;;12.05;10.15;;;15.00;99.90;;;;;;4913201;29;20170;-86
2023/08/30 10:59:29;;;;;;;13.95;11.48;;;15.10;99.90;;;;;;4919300;29;20123;-89
2023/08/30 11:01:55;;;;;;;14.68;10.00;;;15.00;99.90;;;;;;4922619;29;20028;-87
2023/08/30 11:04:22;;;;;;;11.77;9.15;;;15.00;99.90;;;;;;4922894;29;20027;-87
2023/08/30 11:06:49;;;;;;;8.98;8.07;;;15.00;99.90;;;;;;4921748;29;20046;-89
2023/08/30 11:09:24;;;;;;;13.32;9.63;;;15.00;99.90;;;;;;4934791;29;20030;-87
2023/08/30 11:11:51;;;;;;;13.95;9.80;;;15.00;99.90;;;;;;4916589;29;20084;-88
2023/08/30 11:14:18;;;;;;;12.40;10.05;;;14.90;99.90;;;;;;4933319;29;20023;-86
2023/08/30 11:16:44;;;;;;;13.63;10.52;;;15.00;99.90;;;;;;4911483;29;20445;-86
2023/08/30 11:19:11;;;;;;;11.10;9.95;;;15.20;99.90;;;;;;4910433;29;20393;-86
2023/08/30 11:21:39;;;;;;;10.18;9.18;;;15.40;99.90;;;;;;4903149;29;20019;-85
2023/08/30 11:24:07;;;;;;;10.80;9.70;;;15.50;99.90;;;;;;4904904;29;20020;-85
2023/08/30 11:26:33;;;;;;;10.75;9.52;;;15.50;99.90;;;;;;4912189;29;20036;-85
2023/08/30 11:29:08;;;;;;;9.77;8.88;;;15.60;99.90;;;;;;4911988;29;20024;-85
2023/08/30 11:31:37;;;;;;;10.57;8.70;;;15.70;99.90;;;;;;4911677;29;20083;-84
2023/08/30 11:34:03;;;;;;;8.57;7.78;;;15.80;99.90;;;;;;4905807;29;20060;-85
2023/08/30 11:36:31;;;;;;;5.95;5.55;;;15.80;99.90;;;;;;4904696;29;20036;-85
2023/08/30 11:38:58;;;;;;;8.52;6.28;;;15.70;99.90;;;;;;4922188;29;20119;-85
2023/08/30 11:41:27;;;;;;;6.82;5.32;;;15.70;99.90;;;;;;4903979;29;20107;-85
2023/08/30 11:43:54;;;;;;;8.48;7.35;;;15.80;99.90;;;;;;4905352;29;20036;-85
2023/08/30 11:46:20;;;;;;;8.25;7.55;;;15.90;99.90;;;;;;4904932;29;20027;-85
2023/08/30 11:48:48;;;;;;;6.15;5.55;;;16.00;99.90;;;;;;4903821;29;20503;-85
2023/08/30 11:51:14;;;;;;;8.57;6.10;;;16.20;99.90;;;;;;4913087;29;20110;-85
2023/08/30 11:53:42;;;;;;;7.40;6.70;;;16.40;99.90;;;;;;4905891;29;20028;-84
2023/08/30 11:56:09;;;;;;;7.25;5.78;;;16.70;99.90;;;;;;4904614;29;20036;-85
2023/08/30 11:58:37;;;;;;;6.82;6.15;;;17.00;99.90;;;;;;4919807;29;20087;-85
2023/08/30 12:01:07;;;;;;;7.47;6.68;;;17.40;99.90;;;;;;4905632;29;20038;-80
2023/08/30 12:03:33;;;;;;;5.90;5.40;;;17.50;99.90;;;;;;4903253;29;20039;-78
2023/08/30 12:05:59;;;;;;;6.40;5.88;;;17.40;99.90;;;;;;4909919;29;20027;-80
2023/08/30 12:08:29;;;;;;;6.32;5.82;;;17.30;99.90;;;;;;4918952;29;20043;-79
2023/08/30 12:10:56;;;;;;;7.43;6.68;;;17.10;99.90;;;;;;4921574;29;20032;-83
2023/08/30 12:13:26;;;;;;;7.90;7.10;;;17.10;99.90;;;;;;4921878;29;20950;-84
2023/08/30 12:15:53;;;;;;;7.95;7.07;;;17.10;99.90;;;;;;4904672;29;20113;-82
2023/08/30 12:18:28;;;;;;;8.63;7.72;;;17.00;99.90;;;;;;4903210;29;20067;-84
2023/08/30 12:21:02;;;;;;;8.13;7.32;;;17.10;99.90;;;;;;4911274;29;20035;-82
2023/08/30 12:23:30;;;;;;;8.02;7.22;;;17.00;99.90;;;;;;4904167;29;20029;-83
2023/08/30 12:26:00;;;;;;;8.45;7.57;;;17.10;99.90;;;;;;4905413;29;20036;-83
2023/08/30 12:28:27;;;;;;;8.20;7.40;;;17.20;99.90;;;;;;4922546;29;20114;-83
2023/08/30 12:30:53;;;;;;;8.95;7.50;;;17.20;99.90;;;;;;4902107;29;20497;-83
2023/08/30 12:33:25;;;;;;;9.05;7.57;;;17.10;99.90;;;;;;4911400;29;20547;-82
2023/08/30 12:36:01;;;;;;;7.68;7.05;;;17.00;99.90;;;;;;4905906;29;20500;-82